sensor_id;sensor_type;location;lat;lon;timestamp;temperature;humidity
75153;HTU21D;63734;45.218;36.708;2023-05-10T00:01:39;10.01;94.84
75153;HTU21D;63734;45.218;36.708;2023-05-10T00:04:06;10.01;94.75
75153;HTU21D;63734;45.218;36.708;2023-05-10T00:06:32;10.01;94.40
75153;HTU21D;63734;45.218;36.708;2023-05-10T00:08:57;10.01;94.30
75153;HTU21D;63734;45.218;36.708;2023-05-10T00:11:23;10.00;94.09
75153;HTU21D;63734;45.218;36.708;2023-05-10T00:13:50;9.99;93.91
75153;HTU21D;63734;45.218;36.708;2023-05-10T00:16:15;9.99;93.95
75153;HTU21D;63734;45.218;36.708;2023-05-10T00:18:41;10.03;94.17
75153;HTU21D;63734;45.218;36.708;2023-05-10T00:21:07;10.05;94.50
75153;HTU21D;63734;45.218;36.708;2023-05-10T00:23:33;10.05;94.62
75153;HTU21D;63734;45.218;36.708;2023-05-10T00:25:59;10.01;94.65
75153;HTU21D;63734;45.218;36.708;2023-05-10T00:28:27;9.99;94.69
75153;HTU21D;63734;45.218;36.708;2023-05-10T00:30:53;10.00;94.78
75153;HTU21D;63734;45.218;36.708;2023-05-10T00:33:19;10.00;94.78
75153;HTU21D;63734;45.218;36.708;2023-05-10T00:35:45;9.97;94.81
75153;HTU21D;63734;45.218;36.708;2023-05-10T00:38:11;9.95;94.85
75153;HTU21D;63734;45.218;36.708;2023-05-10T00:40:37;9.94;94.82
75153;HTU21D;63734;45.218;36.708;2023-05-10T00:43:06;9.94;94.80
75153;HTU21D;63734;45.218;36.708;2023-05-10T00:45:35;9.96;94.85
75153;HTU21D;63734;45.218;36.708;2023-05-10T00:48:02;9.96;94.82
75153;HTU21D;63734;45.218;36.708;2023-05-10T00:50:30;9.92;94.81
75153;HTU21D;63734;45.218;36.708;2023-05-10T00:52:58;9.91;94.86
75153;HTU21D;63734;45.218;36.708;2023-05-10T00:55:24;9.91;94.87
75153;HTU21D;63734;45.218;36.708;2023-05-10T00:57:52;9.89;94.91
75153;HTU21D;63734;45.218;36.708;2023-05-10T01:00:19;9.88;94.85
75153;HTU21D;63734;45.218;36.708;2023-05-10T01:02:46;9.85;94.87
75153;HTU21D;63734;45.218;36.708;2023-05-10T01:05:12;9.86;94.82
75153;HTU21D;63734;45.218;36.708;2023-05-10T01:07:39;9.85;94.86
75153;HTU21D;63734;45.218;36.708;2023-05-10T01:10:06;9.85;94.85
75153;HTU21D;63734;45.218;36.708;2023-05-10T01:12:36;9.83;94.91
75153;HTU21D;63734;45.218;36.708;2023-05-10T01:15:05;9.81;94.94
75153;HTU21D;63734;45.218;36.708;2023-05-10T01:17:31;9.77;95.03
75153;HTU21D;63734;45.218;36.708;2023-05-10T01:19:58;9.78;95.09
75153;HTU21D;63734;45.218;36.708;2023-05-10T01:25:22;9.74;95.18
75153;HTU21D;63734;45.218;36.708;2023-05-10T01:28:13;9.74;95.07
75153;HTU21D;63734;45.218;36.708;2023-05-10T01:33:21;9.72;94.96
75153;HTU21D;63734;45.218;36.708;2023-05-10T01:41:28;9.72;94.94
75153;HTU21D;63734;45.218;36.708;2023-05-10T01:46:37;9.69;94.83
75153;HTU21D;63734;45.218;36.708;2023-05-10T01:49:25;9.70;94.59
75153;HTU21D;63734;45.218;36.708;2023-05-10T01:51:54;9.70;94.49
75153;HTU21D;63734;45.218;36.708;2023-05-10T01:54:22;9.68;94.46
75153;HTU21D;63734;45.218;36.708;2023-05-10T01:56:55;9.70;94.50
75153;HTU21D;63734;45.218;36.708;2023-05-10T01:59:27;9.75;94.55
75153;HTU21D;63734;45.218;36.708;2023-05-10T02:01:54;9.74;94.53
75153;HTU21D;63734;45.218;36.708;2023-05-10T02:04:21;9.78;94.61
75153;HTU21D;63734;45.218;36.708;2023-05-10T02:06:49;9.75;94.59
75153;HTU21D;63734;45.218;36.708;2023-05-10T02:09:18;9.75;94.57
75153;HTU21D;63734;45.218;36.708;2023-05-10T02:11:47;9.76;94.61
75153;HTU21D;63734;45.218;36.708;2023-05-10T02:14:15;9.79;94.60
75153;HTU21D;63734;45.218;36.708;2023-05-10T02:16:43;9.78;94.58
75153;HTU21D;63734;45.218;36.708;2023-05-10T02:19:10;9.79;94.59
75153;HTU21D;63734;45.218;36.708;2023-05-10T02:21:39;9.82;94.60
75153;HTU21D;63734;45.218;36.708;2023-05-10T02:24:06;9.82;94.48
75153;HTU21D;63734;45.218;36.708;2023-05-10T02:26:33;9.82;94.52
75153;HTU21D;63734;45.218;36.708;2023-05-10T02:29:02;9.82;94.43
75153;HTU21D;63734;45.218;36.708;2023-05-10T02:31:31;9.83;94.29
75153;HTU21D;63734;45.218;36.708;2023-05-10T02:33:59;9.85;94.20
75153;HTU21D;63734;45.218;36.708;2023-05-10T02:36:26;9.85;94.20
75153;HTU21D;63734;45.218;36.708;2023-05-10T02:38:53;9.88;94.01
75153;HTU21D;63734;45.218;36.708;2023-05-10T02:41:20;9.90;93.99
75153;HTU21D;63734;45.218;36.708;2023-05-10T02:43:50;9.92;93.98
75153;HTU21D;63734;45.218;36.708;2023-05-10T02:46:18;9.93;93.96
75153;HTU21D;63734;45.218;36.708;2023-05-10T02:48:44;9.91;93.86
75153;HTU21D;63734;45.218;36.708;2023-05-10T02:51:11;9.86;93.85
75153;HTU21D;63734;45.218;36.708;2023-05-10T02:53:41;9.90;93.99
75153;HTU21D;63734;45.218;36.708;2023-05-10T02:56:19;9.93;94.01
75153;HTU21D;63734;45.218;36.708;2023-05-10T02:58:46;9.96;94.04
75153;HTU21D;63734;45.218;36.708;2023-05-10T03:01:12;9.91;93.95
75153;HTU21D;63734;45.218;36.708;2023-05-10T03:03:38;9.89;93.78
75153;HTU21D;63734;45.218;36.708;2023-05-10T03:06:04;9.90;93.72
75153;HTU21D;63734;45.218;36.708;2023-05-10T03:08:30;9.90;93.57
75153;HTU21D;63734;45.218;36.708;2023-05-10T03:16:35;9.94;93.33
75153;HTU21D;63734;45.218;36.708;2023-05-10T03:19:12;9.93;93.21
75153;HTU21D;63734;45.218;36.708;2023-05-10T03:21:44;9.92;93.18
75153;HTU21D;63734;45.218;36.708;2023-05-10T03:24:13;9.93;93.31
75153;HTU21D;63734;45.218;36.708;2023-05-10T03:26:43;9.90;93.10
75153;HTU21D;63734;45.218;36.708;2023-05-10T03:29:15;9.90;93.07
75153;HTU21D;63734;45.218;36.708;2023-05-10T03:31:41;9.89;93.04
75153;HTU21D;63734;45.218;36.708;2023-05-10T03:34:08;9.92;93.17
75153;HTU21D;63734;45.218;36.708;2023-05-10T03:36:34;9.94;93.12
75153;HTU21D;63734;45.218;36.708;2023-05-10T03:39:00;9.97;93.04
75153;HTU21D;63734;45.218;36.708;2023-05-10T03:41:26;10.00;93.09
75153;HTU21D;63734;45.218;36.708;2023-05-10T03:43:53;10.04;92.87
75153;HTU21D;63734;45.218;36.708;2023-05-10T03:46:19;10.06;92.85
75153;HTU21D;63734;45.218;36.708;2023-05-10T03:48:45;10.10;92.77
75153;HTU21D;63734;45.218;36.708;2023-05-10T03:51:11;10.12;92.66
75153;HTU21D;63734;45.218;36.708;2023-05-10T03:53:38;10.16;92.47
75153;HTU21D;63734;45.218;36.708;2023-05-10T03:56:04;10.20;92.29
75153;HTU21D;63734;45.218;36.708;2023-05-10T03:58:30;10.25;92.30
75153;HTU21D;63734;45.218;36.708;2023-05-10T04:00:57;10.29;92.20
75153;HTU21D;63734;45.218;36.708;2023-05-10T04:03:23;10.29;91.85
75153;HTU21D;63734;45.218;36.708;2023-05-10T04:05:59;10.25;91.50
75153;HTU21D;63734;45.218;36.708;2023-05-10T04:08:26;10.22;91.60
75153;HTU21D;63734;45.218;36.708;2023-05-10T04:10:52;10.20;91.47
75153;HTU21D;63734;45.218;36.708;2023-05-10T04:13:18;10.14;91.41
75153;HTU21D;63734;45.218;36.708;2023-05-10T04:15:44;10.07;91.37
75153;HTU21D;63734;45.218;36.708;2023-05-10T04:18:10;10.03;91.72
75153;HTU21D;63734;45.218;36.708;2023-05-10T04:20:37;10.03;92.03
75153;HTU21D;63734;45.218;36.708;2023-05-10T04:23:03;10.01;92.23
75153;HTU21D;63734;45.218;36.708;2023-05-10T04:25:28;10.03;92.34
75153;HTU21D;63734;45.218;36.708;2023-05-10T04:27:54;9.99;92.49
75153;HTU21D;63734;45.218;36.708;2023-05-10T04:30:20;9.98;92.55
75153;HTU21D;63734;45.218;36.708;2023-05-10T04:32:46;9.94;92.66
75153;HTU21D;63734;45.218;36.708;2023-05-10T04:35:12;9.90;92.83
75153;HTU21D;63734;45.218;36.708;2023-05-10T04:37:40;9.88;92.97
75153;HTU21D;63734;45.218;36.708;2023-05-10T04:40:06;9.86;93.07
75153;HTU21D;63734;45.218;36.708;2023-05-10T04:42:32;9.83;93.20
75153;HTU21D;63734;45.218;36.708;2023-05-10T04:44:58;9.81;93.33
75153;HTU21D;63734;45.218;36.708;2023-05-10T04:47:24;9.80;93.49
75153;HTU21D;63734;45.218;36.708;2023-05-10T04:49:50;9.83;93.56
75153;HTU21D;63734;45.218;36.708;2023-05-10T04:52:16;9.86;93.59
75153;HTU21D;63734;45.218;36.708;2023-05-10T04:54:43;9.91;93.63
75153;HTU21D;63734;45.218;36.708;2023-05-10T04:57:09;9.88;93.43
75153;HTU21D;63734;45.218;36.708;2023-05-10T04:59:36;9.85;93.41
75153;HTU21D;63734;45.218;36.708;2023-05-10T05:02:03;9.82;93.44
75153;HTU21D;63734;45.218;36.708;2023-05-10T05:04:29;9.81;93.51
75153;HTU21D;63734;45.218;36.708;2023-05-10T05:06:56;9.81;93.57
75153;HTU21D;63734;45.218;36.708;2023-05-10T05:09:22;9.75;93.70
75153;HTU21D;63734;45.218;36.708;2023-05-10T05:11:48;9.72;93.87
75153;HTU21D;63734;45.218;36.708;2023-05-10T05:14:14;9.68;93.93
75153;HTU21D;63734;45.218;36.708;2023-05-10T05:16:40;9.66;94.07
75153;HTU21D;63734;45.218;36.708;2023-05-10T05:19:06;9.70;94.11
75153;HTU21D;63734;45.218;36.708;2023-05-10T05:21:32;9.77;94.02
75153;HTU21D;63734;45.218;36.708;2023-05-10T05:23:58;9.85;93.78
75153;HTU21D;63734;45.218;36.708;2023-05-10T05:26:24;9.93;93.29
75153;HTU21D;63734;45.218;36.708;2023-05-10T05:28:49;10.01;92.66
75153;HTU21D;63734;45.218;36.708;2023-05-10T05:31:19;10.10;92.03
75153;HTU21D;63734;45.218;36.708;2023-05-10T05:33:45;10.15;92.05
75153;HTU21D;63734;45.218;36.708;2023-05-10T05:36:11;10.19;91.34
75153;HTU21D;63734;45.218;36.708;2023-05-10T05:38:37;10.22;90.96
75153;HTU21D;63734;45.218;36.708;2023-05-10T05:41:03;10.23;89.46
75153;HTU21D;63734;45.218;36.708;2023-05-10T05:43:28;10.28;89.02
75153;HTU21D;63734;45.218;36.708;2023-05-10T05:45:55;10.35;89.23
75153;HTU21D;63734;45.218;36.708;2023-05-10T05:48:23;10.42;88.86
75153;HTU21D;63734;45.218;36.708;2023-05-10T05:50:49;10.53;88.85
75153;HTU21D;63734;45.218;36.708;2023-05-10T05:53:15;10.57;85.75
75153;HTU21D;63734;45.218;36.708;2023-05-10T05:55:51;10.65;86.41
75153;HTU21D;63734;45.218;36.708;2023-05-10T05:58:18;10.81;84.46
75153;HTU21D;63734;45.218;36.708;2023-05-10T06:00:44;11.08;84.10
75153;HTU21D;63734;45.218;36.708;2023-05-10T06:03:10;11.55;82.58
75153;HTU21D;63734;45.218;36.708;2023-05-10T06:05:36;11.67;82.58
75153;HTU21D;63734;45.218;36.708;2023-05-10T06:08:02;11.82;81.75
75153;HTU21D;63734;45.218;36.708;2023-05-10T06:10:28;11.88;81.72
75153;HTU21D;63734;45.218;36.708;2023-05-10T06:12:54;12.02;81.56
75153;HTU21D;63734;45.218;36.708;2023-05-10T06:15:20;12.04;82.37
75153;HTU21D;63734;45.218;36.708;2023-05-10T06:17:45;12.13;82.81
75153;HTU21D;63734;45.218;36.708;2023-05-10T06:20:13;12.48;82.26
75153;HTU21D;63734;45.218;36.708;2023-05-10T06:22:39;12.87;80.29
75153;HTU21D;63734;45.218;36.708;2023-05-10T06:25:05;13.20;80.63
75153;HTU21D;63734;45.218;36.708;2023-05-10T06:27:31;13.48;79.10
75153;HTU21D;63734;45.218;36.708;2023-05-10T06:29:57;13.35;77.98
75153;HTU21D;63734;45.218;36.708;2023-05-10T06:32:23;13.33;77.92
75153;HTU21D;63734;45.218;36.708;2023-05-10T06:34:49;13.59;77.85
75153;HTU21D;63734;45.218;36.708;2023-05-10T06:37:14;13.78;77.21
75153;HTU21D;63734;45.218;36.708;2023-05-10T06:39:40;13.65;75.38
75153;HTU21D;63734;45.218;36.708;2023-05-10T06:42:06;13.45;75.20
75153;HTU21D;63734;45.218;36.708;2023-05-10T06:44:32;13.35;72.92
75153;HTU21D;63734;45.218;36.708;2023-05-10T06:46:58;13.22;74.20
75153;HTU21D;63734;45.218;36.708;2023-05-10T06:49:24;13.25;74.85
75153;HTU21D;63734;45.218;36.708;2023-05-10T06:51:50;13.37;73.98
75153;HTU21D;63734;45.218;36.708;2023-05-10T06:54:16;13.39;74.42
75153;HTU21D;63734;45.218;36.708;2023-05-10T06:56:42;13.32;74.61
75153;HTU21D;63734;45.218;36.708;2023-05-10T06:59:08;13.30;75.05
75153;HTU21D;63734;45.218;36.708;2023-05-10T07:01:34;13.19;74.92
75153;HTU21D;63734;45.218;36.708;2023-05-10T07:04:00;13.03;75.46
75153;HTU21D;63734;45.218;36.708;2023-05-10T07:06:26;12.88;75.37
75153;HTU21D;63734;45.218;36.708;2023-05-10T07:08:52;12.62;75.88
75153;HTU21D;63734;45.218;36.708;2023-05-10T07:11:18;12.41;76.12
75153;HTU21D;63734;45.218;36.708;2023-05-10T07:13:44;12.25;76.09
75153;HTU21D;63734;45.218;36.708;2023-05-10T07:16:12;12.25;76.48
75153;HTU21D;63734;45.218;36.708;2023-05-10T07:18:38;12.31;77.09
75153;HTU21D;63734;45.218;36.708;2023-05-10T07:21:04;12.40;77.17
75153;HTU21D;63734;45.218;36.708;2023-05-10T07:23:29;12.30;76.02
75153;HTU21D;63734;45.218;36.708;2023-05-10T07:25:55;12.25;76.02
75153;HTU21D;63734;45.218;36.708;2023-05-10T07:28:23;12.38;76.19
75153;HTU21D;63734;45.218;36.708;2023-05-10T07:30:51;12.60;75.18
75153;HTU21D;63734;45.218;36.708;2023-05-10T07:33:17;12.92;75.09
75153;HTU21D;63734;45.218;36.708;2023-05-10T07:35:43;13.22;73.76
75153;HTU21D;63734;45.218;36.708;2023-05-10T07:38:09;13.47;73.32
75153;HTU21D;63734;45.218;36.708;2023-05-10T07:40:36;13.70;72.32
75153;HTU21D;63734;45.218;36.708;2023-05-10T07:43:03;13.78;70.93
75153;HTU21D;63734;45.218;36.708;2023-05-10T07:45:29;13.81;71.09
75153;HTU21D;63734;45.218;36.708;2023-05-10T07:47:55;13.81;71.38
75153;HTU21D;63734;45.218;36.708;2023-05-10T07:50:21;14.01;71.24
75153;HTU21D;63734;45.218;36.708;2023-05-10T07:52:47;14.21;70.53
75153;HTU21D;63734;45.218;36.708;2023-05-10T07:55:13;14.38;69.71
75153;HTU21D;63734;45.218;36.708;2023-05-10T07:57:39;14.35;69.38
75153;HTU21D;63734;45.218;36.708;2023-05-10T08:00:06;14.27;68.92
75153;HTU21D;63734;45.218;36.708;2023-05-10T08:02:39;14.50;70.52
75153;HTU21D;63734;45.218;36.708;2023-05-10T08:05:05;14.72;69.78
75153;HTU21D;63734;45.218;36.708;2023-05-10T08:07:31;14.79;68.42
75153;HTU21D;63734;45.218;36.708;2023-05-10T08:09:57;14.72;67.23
75153;HTU21D;63734;45.218;36.708;2023-05-10T08:12:23;14.52;67.09
75153;HTU21D;63734;45.218;36.708;2023-05-10T08:14:49;14.59;68.70
75153;HTU21D;63734;45.218;36.708;2023-05-10T08:17:15;14.82;68.83
75153;HTU21D;63734;45.218;36.708;2023-05-10T08:19:41;15.00;67.84
75153;HTU21D;63734;45.218;36.708;2023-05-10T08:22:06;14.93;67.16
75153;HTU21D;63734;45.218;36.708;2023-05-10T08:24:33;14.88;67.56
75153;HTU21D;63734;45.218;36.708;2023-05-10T08:27:05;14.89;66.03
75153;HTU21D;63734;45.218;36.708;2023-05-10T08:29:31;14.74;66.62
75153;HTU21D;63734;45.218;36.708;2023-05-10T08:31:57;14.71;67.27
75153;HTU21D;63734;45.218;36.708;2023-05-10T08:34:23;14.80;66.75
75153;HTU21D;63734;45.218;36.708;2023-05-10T08:36:49;14.70;66.67
75153;HTU21D;63734;45.218;36.708;2023-05-10T08:39:14;14.58;66.86
75153;HTU21D;63734;45.218;36.708;2023-05-10T08:41:44;14.41;67.62
75153;HTU21D;63734;45.218;36.708;2023-05-10T08:44:10;14.36;67.75
75153;HTU21D;63734;45.218;36.708;2023-05-10T08:46:37;14.36;67.95
75153;HTU21D;63734;45.218;36.708;2023-05-10T08:49:07;14.45;68.39
75153;HTU21D;63734;45.218;36.708;2023-05-10T08:51:36;14.54;67.48
75153;HTU21D;63734;45.218;36.708;2023-05-10T08:54:04;14.47;67.36
75153;HTU21D;63734;45.218;36.708;2023-05-10T08:56:31;14.54;68.20
75153;HTU21D;63734;45.218;36.708;2023-05-10T08:58:57;14.71;67.28
75153;HTU21D;63734;45.218;36.708;2023-05-10T09:01:24;14.67;66.27
75153;HTU21D;63734;45.218;36.708;2023-05-10T09:03:51;14.56;66.96
75153;HTU21D;63734;45.218;36.708;2023-05-10T09:06:17;14.48;66.78
75153;HTU21D;63734;45.218;36.708;2023-05-10T09:08:43;14.45;67.80
75153;HTU21D;63734;45.218;36.708;2023-05-10T09:11:11;14.48;67.84
75153;HTU21D;63734;45.218;36.708;2023-05-10T09:13:37;14.40;67.88
75153;HTU21D;63734;45.218;36.708;2023-05-10T09:16:03;14.34;67.94
75153;HTU21D;63734;45.218;36.708;2023-05-10T09:18:30;14.34;68.10
75153;HTU21D;63734;45.218;36.708;2023-05-10T09:20:56;14.42;67.42
75153;HTU21D;63734;45.218;36.708;2023-05-10T09:23:22;14.42;67.59
75153;HTU21D;63734;45.218;36.708;2023-05-10T09:26:02;14.45;67.90
75153;HTU21D;63734;45.218;36.708;2023-05-10T09:31:18;14.54;67.95
75153;HTU21D;63734;45.218;36.708;2023-05-10T09:33:45;14.56;67.68
75153;HTU21D;63734;45.218;36.708;2023-05-10T09:36:14;14.73;67.75
75153;HTU21D;63734;45.218;36.708;2023-05-10T09:38:47;14.69;67.63
75153;HTU21D;63734;45.218;36.708;2023-05-10T09:41:23;14.67;68.04
75153;HTU21D;63734;45.218;36.708;2023-05-10T09:43:55;14.75;68.30
75153;HTU21D;63734;45.218;36.708;2023-05-10T09:46:21;14.86;67.70
75153;HTU21D;63734;45.218;36.708;2023-05-10T09:48:48;14.93;66.78
75153;HTU21D;63734;45.218;36.708;2023-05-10T09:51:21;14.95;67.12
75153;HTU21D;63734;45.218;36.708;2023-05-10T09:53:47;14.96;66.69
75153;HTU21D;63734;45.218;36.708;2023-05-10T09:56:35;14.89;66.72
75153;HTU21D;63734;45.218;36.708;2023-05-10T09:59:05;14.91;67.04
75153;HTU21D;63734;45.218;36.708;2023-05-10T10:01:32;14.71;65.95
75153;HTU21D;63734;45.218;36.708;2023-05-10T10:03:58;14.40;66.05
75153;HTU21D;63734;45.218;36.708;2023-05-10T10:06:25;14.23;66.41
75153;HTU21D;63734;45.218;36.708;2023-05-10T10:08:53;14.18;66.81
75153;HTU21D;63734;45.218;36.708;2023-05-10T10:11:19;14.32;66.59
75153;HTU21D;63734;45.218;36.708;2023-05-10T10:13:45;14.34;66.24
75153;HTU21D;63734;45.218;36.708;2023-05-10T10:16:11;14.37;66.10
75153;HTU21D;63734;45.218;36.708;2023-05-10T10:18:38;14.30;65.72
75153;HTU21D;63734;45.218;36.708;2023-05-10T10:21:06;14.17;66.59
75153;HTU21D;63734;45.218;36.708;2023-05-10T10:23:35;14.18;67.11
75153;HTU21D;63734;45.218;36.708;2023-05-10T10:26:03;14.34;66.82
75153;HTU21D;63734;45.218;36.708;2023-05-10T10:32:01;14.42;66.46
75153;HTU21D;63734;45.218;36.708;2023-05-10T10:34:30;14.54;67.19
75153;HTU21D;63734;45.218;36.708;2023-05-10T10:36:57;14.60;67.03
75153;HTU21D;63734;45.218;36.708;2023-05-10T10:39:24;14.56;65.95
75153;HTU21D;63734;45.218;36.708;2023-05-10T10:41:56;14.49;66.01
75153;HTU21D;63734;45.218;36.708;2023-05-10T10:44:23;14.51;66.33
75153;HTU21D;63734;45.218;36.708;2023-05-10T10:49:52;14.74;66.64
75153;HTU21D;63734;45.218;36.708;2023-05-10T10:52:31;14.86;66.39
75153;HTU21D;63734;45.218;36.708;2023-05-10T10:55:01;14.88;65.14
75153;HTU21D;63734;45.218;36.708;2023-05-10T10:57:28;14.75;65.91
75153;HTU21D;63734;45.218;36.708;2023-05-10T11:00:28;14.70;66.72
75153;HTU21D;63734;45.218;36.708;2023-05-10T11:05:41;14.36;67.19
75153;HTU21D;63734;45.218;36.708;2023-05-10T11:08:34;14.21;67.67
75153;HTU21D;63734;45.218;36.708;2023-05-10T11:13:36;13.82;67.40
75153;HTU21D;63734;45.218;36.708;2023-05-10T11:16:20;13.77;68.20
75153;HTU21D;63734;45.218;36.708;2023-05-10T11:19:04;13.91;67.99
75153;HTU21D;63734;45.218;36.708;2023-05-10T11:21:31;13.85;67.35
75153;HTU21D;63734;45.218;36.708;2023-05-10T11:23:59;13.93;67.64
75153;HTU21D;63734;45.218;36.708;2023-05-10T11:26:31;13.93;66.94
75153;HTU21D;63734;45.218;36.708;2023-05-10T11:28:58;13.85;67.88
75153;HTU21D;63734;45.218;36.708;2023-05-10T11:31:26;13.92;67.45
75153;HTU21D;63734;45.218;36.708;2023-05-10T11:33:54;13.74;67.77
75153;HTU21D;63734;45.218;36.708;2023-05-10T11:36:23;13.66;68.36
75153;HTU21D;63734;45.218;36.708;2023-05-10T11:38:49;13.59;68.10
75153;HTU21D;63734;45.218;36.708;2023-05-10T11:41:17;13.62;68.33
75153;HTU21D;63734;45.218;36.708;2023-05-10T11:43:46;13.65;68.33
75153;HTU21D;63734;45.218;36.708;2023-05-10T11:46:18;13.63;68.49
75153;HTU21D;63734;45.218;36.708;2023-05-10T11:48:47;13.69;68.43
75153;HTU21D;63734;45.218;36.708;2023-05-10T11:51:14;13.76;68.62
75153;HTU21D;63734;45.218;36.708;2023-05-10T11:53:40;13.81;67.93
75153;HTU21D;63734;45.218;36.708;2023-05-10T11:56:10;13.92;68.11
75153;HTU21D;63734;45.218;36.708;2023-05-10T11:58:37;13.94;67.88
75153;HTU21D;63734;45.218;36.708;2023-05-10T12:01:04;13.83;67.86
75153;HTU21D;63734;45.218;36.708;2023-05-10T12:03:31;13.79;67.96
75153;HTU21D;63734;45.218;36.708;2023-05-10T12:05:58;13.80;67.88
75153;HTU21D;63734;45.218;36.708;2023-05-10T12:08:26;13.91;68.16
75153;HTU21D;63734;45.218;36.708;2023-05-10T12:11:03;14.00;68.16
75153;HTU21D;63734;45.218;36.708;2023-05-10T12:13:29;14.12;68.35
75153;HTU21D;63734;45.218;36.708;2023-05-10T12:15:58;14.11;67.65
75153;HTU21D;63734;45.218;36.708;2023-05-10T12:18:24;14.00;67.65
75153;HTU21D;63734;45.218;36.708;2023-05-10T12:20:54;14.00;68.04
75153;HTU21D;63734;45.218;36.708;2023-05-10T12:23:20;13.91;68.09
75153;HTU21D;63734;45.218;36.708;2023-05-10T12:25:47;13.88;69.02
75153;HTU21D;63734;45.218;36.708;2023-05-10T12:28:12;13.85;68.37
75153;HTU21D;63734;45.218;36.708;2023-05-10T12:30:39;13.85;68.77
75153;HTU21D;63734;45.218;36.708;2023-05-10T12:33:10;13.83;69.06
75153;HTU21D;63734;45.218;36.708;2023-05-10T12:36:03;13.95;69.32
75153;HTU21D;63734;45.218;36.708;2023-05-10T12:41:00;13.95;69.48
75153;HTU21D;63734;45.218;36.708;2023-05-10T12:43:27;13.91;68.78
75153;HTU21D;63734;45.218;36.708;2023-05-10T12:45:53;13.82;68.78
75153;HTU21D;63734;45.218;36.708;2023-05-10T12:48:19;13.86;68.88
75153;HTU21D;63734;45.218;36.708;2023-05-10T12:50:46;13.89;69.41
75153;HTU21D;63734;45.218;36.708;2023-05-10T12:53:13;13.93;68.94
75153;HTU21D;63734;45.218;36.708;2023-05-10T12:55:42;13.86;68.54
75153;HTU21D;63734;45.218;36.708;2023-05-10T12:58:07;13.86;68.83
75153;HTU21D;63734;45.218;36.708;2023-05-10T13:00:33;13.83;67.90
75153;HTU21D;63734;45.218;36.708;2023-05-10T13:02:59;13.70;67.54
75153;HTU21D;63734;45.218;36.708;2023-05-10T13:05:25;13.67;68.17
75153;HTU21D;63734;45.218;36.708;2023-05-10T13:07:51;0.00;68.07
75153;HTU21D;63734;45.218;36.708;2023-05-10T13:10:17;13.69;67.17
75153;HTU21D;63734;45.218;36.708;2023-05-10T13:12:43;13.60;67.32
75153;HTU21D;63734;45.218;36.708;2023-05-10T13:15:09;13.60;67.40
75153;HTU21D;63734;45.218;36.708;2023-05-10T13:17:35;13.62;67.01
75153;HTU21D;63734;45.218;36.708;2023-05-10T13:20:01;13.62;67.21
75153;HTU21D;63734;45.218;36.708;2023-05-10T13:22:27;13.67;67.01
75153;HTU21D;63734;45.218;36.708;2023-05-10T13:24:53;13.66;67.40
75153;HTU21D;63734;45.218;36.708;2023-05-10T13:27:18;13.67;67.62
75153;HTU21D;63734;45.218;36.708;2023-05-10T13:29:45;13.67;67.04
75153;HTU21D;63734;45.218;36.708;2023-05-10T13:32:11;13.59;67.22
75153;HTU21D;63734;45.218;36.708;2023-05-10T13:34:37;13.51;67.68
75153;HTU21D;63734;45.218;36.708;2023-05-10T13:37:03;13.51;67.96
75153;HTU21D;63734;45.218;36.708;2023-05-10T13:39:28;13.45;68.30
75153;HTU21D;63734;45.218;36.708;2023-05-10T13:41:58;13.43;68.09
75153;HTU21D;63734;45.218;36.708;2023-05-10T13:44:24;13.38;68.09
75153;HTU21D;63734;45.218;36.708;2023-05-10T13:46:51;13.37;68.31
75153;HTU21D;63734;45.218;36.708;2023-05-10T13:49:17;13.41;68.52
75153;HTU21D;63734;45.218;36.708;2023-05-10T13:51:43;13.40;68.22
75153;HTU21D;63734;45.218;36.708;2023-05-10T13:54:09;13.43;68.14
75153;HTU21D;63734;45.218;36.708;2023-05-10T13:56:35;13.41;68.52
75153;HTU21D;63734;45.218;36.708;2023-05-10T13:59:01;13.32;68.06
75153;HTU21D;63734;45.218;36.708;2023-05-10T14:01:28;13.24;68.31
75153;HTU21D;63734;45.218;36.708;2023-05-10T14:03:54;13.18;68.69
75153;HTU21D;63734;45.218;36.708;2023-05-10T14:06:20;13.22;68.98
75153;HTU21D;63734;45.218;36.708;2023-05-10T14:08:47;13.22;69.19
75153;HTU21D;63734;45.218;36.708;2023-05-10T14:11:13;13.21;68.23
75153;HTU21D;63734;45.218;36.708;2023-05-10T14:13:39;13.12;67.72
75153;HTU21D;63734;45.218;36.708;2023-05-10T14:16:06;13.04;68.08
75153;HTU21D;63734;45.218;36.708;2023-05-10T14:18:32;13.03;68.42
75153;HTU21D;63734;45.218;36.708;2023-05-10T14:20:57;13.21;69.78
75153;HTU21D;63734;45.218;36.708;2023-05-10T14:23:23;13.17;68.62
75153;HTU21D;63734;45.218;36.708;2023-05-10T14:25:51;13.01;68.67
75153;HTU21D;63734;45.218;36.708;2023-05-10T14:28:17;12.94;68.99
75153;HTU21D;63734;45.218;36.708;2023-05-10T14:30:46;12.86;68.89
75153;HTU21D;63734;45.218;36.708;2023-05-10T14:33:12;12.80;68.59
75153;HTU21D;63734;45.218;36.708;2023-05-10T14:35:39;12.71;68.58
75153;HTU21D;63734;45.218;36.708;2023-05-10T14:38:05;12.57;69.09
75153;HTU21D;63734;45.218;36.708;2023-05-10T14:40:31;12.56;69.54
75153;HTU21D;63734;45.218;36.708;2023-05-10T14:42:56;12.59;69.71
75153;HTU21D;63734;45.218;36.708;2023-05-10T14:45:23;12.55;69.35
75153;HTU21D;63734;45.218;36.708;2023-05-10T14:47:49;12.55;69.51
75153;HTU21D;63734;45.218;36.708;2023-05-10T14:50:16;12.56;69.65
75153;HTU21D;63734;45.218;36.708;2023-05-10T14:52:45;12.57;69.56
75153;HTU21D;63734;45.218;36.708;2023-05-10T14:55:10;12.45;70.00
75153;HTU21D;63734;45.218;36.708;2023-05-10T14:57:36;12.38;70.45
75153;HTU21D;63734;45.218;36.708;2023-05-10T15:00:03;12.28;70.96
75153;HTU21D;63734;45.218;36.708;2023-05-10T15:02:30;12.25;71.14
75153;HTU21D;63734;45.218;36.708;2023-05-10T15:04:57;12.22;70.75
75153;HTU21D;63734;45.218;36.708;2023-05-10T15:07:23;12.25;70.91
75153;HTU21D;63734;45.218;36.708;2023-05-10T15:09:52;12.26;71.06
75153;HTU21D;63734;45.218;36.708;2023-05-10T15:12:19;12.28;71.16
75153;HTU21D;63734;45.218;36.708;2023-05-10T15:14:46;12.22;70.61
75153;HTU21D;63734;45.218;36.708;2023-05-10T15:17:12;12.15;71.07
75153;HTU21D;63734;45.218;36.708;2023-05-10T15:19:38;12.13;71.63
75153;HTU21D;63734;45.218;36.708;2023-05-10T15:22:07;12.10;71.68
75153;HTU21D;63734;45.218;36.708;2023-05-10T15:24:32;12.10;71.77
75153;HTU21D;63734;45.218;36.708;2023-05-10T15:26:58;12.13;71.64
75153;HTU21D;63734;45.218;36.708;2023-05-10T15:29:25;12.13;71.65
75153;HTU21D;63734;45.218;36.708;2023-05-10T15:31:51;12.10;70.93
75153;HTU21D;63734;45.218;36.708;2023-05-10T15:34:17;12.04;70.87
75153;HTU21D;63734;45.218;36.708;2023-05-10T15:36:44;11.99;70.96
75153;HTU21D;63734;45.218;36.708;2023-05-10T15:39:11;11.98;71.05
75153;HTU21D;63734;45.218;36.708;2023-05-10T15:41:37;11.99;71.34
75153;HTU21D;63734;45.218;36.708;2023-05-10T15:44:03;11.97;70.62